Time;durP1;ratioP1;P1;durP2;ratioP2;P2;SDS_P1;SDS_P2;PMS_P1;PMS_P2;Temp;Humidity;BMP_temperature;BMP_pressure;BME280_temperature;BME280_humidity;BME280_pressure;Samples;Min_cycle;Max_cycle;Signal;HPM_P1;HPM_P2
2023/12/07 00:01:26;;;;;;;8.27;4.50;;;;;;;-0.49;100.00;101903.00;4955886;29;20142;-81
2023/12/07 00:03:52;;;;;;;8.55;4.30;;;;;;;-0.47;100.00;101905.63;4956533;29;20036;-82
2023/12/07 00:06:17;;;;;;;9.10;4.55;;;;;;;-0.55;100.00;101900.16;4957016;29;20131;-82
2023/12/07 00:08:45;;;;;;;9.95;4.90;;;;;;;-0.52;100.00;101900.31;4955514;29;20110;-82
2023/12/07 00:11:11;;;;;;;7.90;4.32;;;;;;;-0.51;100.00;101901.19;4956098;29;20034;-82
2023/12/07 00:13:36;;;;;;;8.27;4.63;;;;;;;-0.56;100.00;101900.09;4956318;29;20020;-81
2023/12/07 00:16:02;;;;;;;8.38;4.68;;;;;;;-0.60;100.00;101888.88;4955268;29;20423;-82
2023/12/07 00:18:27;;;;;;;9.43;4.70;;;;;;;-0.58;100.00;101894.94;4956115;29;20075;-82
2023/12/07 00:20:52;;;;;;;7.15;4.15;;;;;;;-0.66;100.00;101894.56;4955910;29;20034;-82
2023/12/07 00:23:18;;;;;;;7.82;4.05;;;;;;;-0.80;100.00;101870.06;4954924;28;20062;-82
2023/12/07 00:25:45;;;;;;;6.53;3.92;;;;;;;-0.78;100.00;101881.22;4955909;29;20023;-82
2023/12/07 00:28:11;;;;;;;8.05;4.10;;;;;;;-0.77;100.00;101882.97;4956256;29;20020;-82
2023/12/07 00:30:36;;;;;;;6.43;3.75;;;;;;;-0.78;100.00;101892.28;4955272;29;20031;-82
2023/12/07 00:33:01;;;;;;;6.97;4.20;;;;;;;-0.82;100.00;101880.19;4955678;29;20038;-82
2023/12/07 00:35:28;;;;;;;7.82;4.40;;;;;;;-0.77;100.00;101890.63;4955953;29;20047;-82
2023/12/07 00:37:54;;;;;;;;;;;;;;;-0.76;100.00;101899.13;4955507;29;20028;-82
2023/12/07 00:40:19;;;;;;;6.53;3.50;;;;;;;-0.79;100.00;101899.88;4955956;29;20453;-82
2023/12/07 00:42:45;;;;;;;6.18;3.55;;;;;;;-0.85;100.00;101895.34;4955641;29;20039;-82
2023/12/07 00:45:13;;;;;;;5.35;3.45;;;;;;;-0.83;100.00;101892.84;4955282;29;20086;-82
2023/12/07 00:47:39;;;;;;;6.55;3.50;;;;;;;-0.87;100.00;101894.38;4955669;29;20456;-82
2023/12/07 00:50:05;;;;;;;8.80;4.07;;;;;;;-0.88;100.00;101897.72;4955862;29;20389;-82
2023/12/07 00:52:30;;;;;;;8.18;4.20;;;;;;;-0.95;100.00;101894.00;4955339;29;20298;-82
2023/12/07 00:54:56;;;;;;;5.63;3.60;;;;;;;-1.02;100.00;101884.31;4955574;29;20066;-82
2023/12/07 00:57:24;;;;;;;7.55;4.00;;;;;;;-1.02;100.00;101875.81;4956036;29;20039;-82
2023/12/07 00:59:49;;;;;;;7.93;4.30;;;;;;;-1.03;100.00;101889.34;4954929;29;20030;-82
2023/12/07 01:02:14;;;;;;;9.13;4.90;;;;;;;-1.08;100.00;101878.94;4953654;29;20154;-82
2023/12/07 01:04:40;;;;;;;9.55;4.70;;;;;;;-1.06;100.00;101889.19;4954808;29;20120;-81
2023/12/07 01:07:05;;;;;;;8.43;4.70;;;;;;;-1.09;100.00;101890.78;4955760;29;20030;-83
2023/12/07 01:09:30;;;;;;;11.98;4.90;;;;;;;-1.13;100.00;101883.81;4955455;29;20380;-83
2023/12/07 01:11:57;;;;;;;10.20;5.00;;;;;;;-1.13;100.00;101894.00;4954582;29;20027;-82
2023/12/07 01:14:25;;;;;;;;;;;;;;;-1.07;100.00;101898.53;4954224;29;20039;-82
2023/12/07 01:17:03;;;;;;;9.52;4.80;;;;;;;-1.18;100.00;101892.88;4955114;29;19918;-82
2023/12/07 01:19:28;;;;;;;10.40;4.88;;;;;;;-1.07;100.00;101918.03;4954268;29;20102;-82
2023/12/07 01:21:56;;;;;;;8.27;4.45;;;;;;;-1.24;100.00;101892.59;4955130;29;20035;-83
2023/12/07 01:24:34;;;;;;;8.30;4.43;;;;;;;-1.16;100.00;101891.28;4955711;29;20053;-83
2023/12/07 01:26:59;;;;;;;7.90;4.43;;;;;;;-1.10;100.00;101909.41;4954304;29;20110;-83
2023/12/07 01:29:34;;;;;;;9.27;4.88;;;;;;;-1.24;100.00;101892.59;4955328;29;20110;-83
2023/12/07 01:31:59;;;;;;;9.82;4.82;;;;;;;-1.15;100.00;101900.69;4954966;29;20027;-83
2023/12/07 01:34:24;;;;;;;7.40;4.60;;;;;;;-1.16;100.00;101911.69;4953638;28;20025;-83
2023/12/07 01:37:02;;;;;;;8.52;4.32;;;;;;;-1.18;100.00;101910.72;4954684;29;20027;-83
2023/12/07 01:39:27;;;;;;;7.82;4.30;;;;;;;-1.30;100.00;101895.72;4954885;29;20334;-83
2023/12/07 01:42:03;;;;;;;7.28;4.18;;;;;;;-1.28;100.00;101896.63;4954171;29;20038;-84
2023/12/07 01:44:28;;;;;;;9.43;4.63;;;;;;;-1.27;100.00;101911.13;4955439;29;20023;-83
2023/12/07 01:46:54;;;;;;;8.43;4.40;;;;;;;-1.44;100.00;101877.16;4954043;28;20522;-83
2023/12/07 01:49:20;;;;;;;9.00;4.30;;;;;;;-1.30;100.00;101902.47;4955364;29;20385;-84
2023/12/07 01:51:46;;;;;;;8.02;4.50;;;;;;;-1.34;100.00;101906.53;4955009;29;20034;-83
2023/12/07 01:54:16;;;;;;;8.35;4.40;;;;;;;-1.34;100.00;101901.44;4954459;29;20086;-83
2023/12/07 01:56:42;;;;;;;8.30;4.38;;;;;;;-1.30;100.00;101911.00;4954958;29;20176;-83
2023/12/07 01:59:26;;;;;;;12.23;5.47;;;;;;;-1.43;100.00;101886.56;4955427;29;20035;-84
2023/12/07 02:01:51;;;;;;;11.20;5.40;;;;;;;-1.38;100.00;101907.16;4953686;29;20051;-83
2023/12/07 02:04:19;;;;;;;9.10;4.90;;;;;;;-1.42;100.00;101901.03;4955226;29;20030;-83
2023/12/07 02:06:45;;;;;;;12.80;5.82;;;;;;;-1.49;100.00;101883.72;4954167;29;20059;-84
2023/12/07 02:09:13;;;;;;;9.30;5.00;;;;;;;-1.42;100.00;101895.94;4954326;29;20027;-83
2023/12/07 02:11:38;;;;;;;11.15;5.50;;;;;;;-1.34;100.00;101910.72;4954757;29;20039;-84
2023/12/07 02:14:22;;;;;;;10.57;5.47;;;;;;;-1.49;100.00;101883.72;4954530;29;20031;-84
2023/12/07 02:17:16;;;;;;;10.10;5.18;;;;;;;-1.33;100.00;101915.03;4953482;29;20023;-84
2023/12/07 02:19:51;;;;;;;11.02;5.10;;;;;;;-1.33;100.00;101904.84;4978056;23;20416;-84
2023/12/07 02:22:24;;;;;;;8.05;4.82;;;;;;;-1.32;100.00;101920.22;4953609;29;20035;-84
2023/12/07 02:25:04;;;;;;;10.68;5.05;;;;;;;-1.30;100.00;101917.75;4953651;29;20083;-85
2023/12/07 02:27:37;;;;;;;10.75;5.15;;;;;;;-1.27;100.00;101923.00;4954687;29;20038;-84
2023/12/07 02:30:02;;;;;;;10.27;5.07;;;;;;;-1.25;100.00;101926.50;4954070;29;20059;-84
2023/12/07 02:32:28;;;;;;;11.25;5.25;;;;;;;-1.21;100.00;101936.03;4954208;29;20433;-84
2023/12/07 02:34:53;;;;;;;11.75;5.75;;;;;;;-1.14;100.00;101930.47;4954292;29;20483;-84
2023/12/07 02:37:21;;;;;;;13.07;6.25;;;;;;;-1.12;100.00;101927.97;4954068;29;20045;-84
2023/12/07 02:39:46;;;;;;;;;;;;;;;-1.10;100.00;101929.81;4955151;29;20039;-84
2023/12/07 02:42:13;;;;;;;13.30;6.07;;;;;;;-1.09;100.00;101928.16;4954334;29;19922;-84
2023/12/07 02:44:54;;;;;;;11.25;5.57;;;;;;;-1.07;100.00;101923.13;4953668;29;20050;-84
2023/12/07 02:47:20;;;;;;;11.68;5.60;;;;;;;-1.14;100.00;101907.53;4956398;28;20023;-84
2023/12/07 02:49:45;;;;;;;8.75;4.85;;;;;;;-1.10;100.00;101906.88;4958470;29;20053;-84
2023/12/07 02:52:11;;;;;;;9.27;4.75;;;;;;;-1.02;100.00;101912.34;4966931;23;20445;-84
2023/12/07 02:54:36;;;;;;;10.30;4.80;;;;;;;-1.00;100.00;101920.06;4977351;28;20030;-84
2023/12/07 02:57:01;;;;;;;10.93;5.18;;;;;;;-1.05;100.00;101913.88;4977143;28;20039;-84
2023/12/07 02:59:27;;;;;;;10.18;4.82;;;;;;;-1.00;100.00;101918.41;4977167;28;20104;-84
2023/12/07 03:01:58;;;;;;;10.05;5.07;;;;;;;-0.99;100.00;101909.06;4976661;28;20039;-84
2023/12/07 03:04:23;;;;;;;11.35;5.40;;;;;;;-0.98;100.00;101914.25;4976700;28;20035;-83
2023/12/07 03:06:48;;;;;;;12.45;5.90;;;;;;;-0.97;100.00;101907.47;4976884;28;20079;-84
2023/12/07 03:09:13;;;;;;;13.30;6.53;;;;;;;-0.99;100.00;101915.06;4977331;28;20112;-84
2023/12/07 03:11:39;;;;;;;14.80;6.93;;;;;;;-1.05;100.00;101906.25;4976332;28;20104;-84
2023/12/07 03:14:16;;;;;;;16.13;7.45;;;;;;;-1.16;100.00;101893.84;4976859;28;20050;-84
2023/12/07 03:16:53;;;;;;;;;;;;;;;-1.00;100.00;101920.97;4977279;28;20062;-83
2023/12/07 03:19:24;;;;;;;16.60;8.05;;;;;;;-1.15;100.00;101904.91;4975996;28;19914;-84
2023/12/07 03:21:50;;;;;;;16.17;7.40;;;;;;;-1.14;100.00;101907.53;4976481;28;20492;-83
2023/12/07 03:24:31;;;;;;;15.25;7.00;;;;;;;-1.05;100.00;101927.47;4977188;28;20058;-83
2023/12/07 03:27:05;;;;;;;13.52;6.40;;;;;;;-1.14;100.00;101912.63;4975928;28;20034;-84
2023/12/07 03:29:34;;;;;;;11.27;5.78;;;;;;;-1.11;100.00;101924.66;4976874;28;20119;-84
2023/12/07 03:31:59;;;;;;;11.25;5.63;;;;;;;-1.14;100.00;101917.72;4977024;28;20034;-84
2023/12/07 03:34:28;;;;;;;10.43;5.18;;;;;;;-1.10;100.00;101913.66;4975757;28;20019;-84
2023/12/07 03:36:57;;;;;;;10.57;5.32;;;;;;;-1.04;100.00;101928.38;4976009;28;20022;-84
2023/12/07 03:39:50;;;;;;;8.70;4.63;;;;;;;-1.03;100.00;101930.13;4976162;28;20023;-84
2023/12/07 03:42:33;;;;;;;9.02;4.68;;;;;;;-1.12;100.00;101918.66;4976787;28;20055;-83
2023/12/07 03:45:11;;;;;;;9.38;4.90;;;;;;;-1.06;100.00;101927.41;4976499;28;20054;-84
2023/12/07 03:47:36;;;;;;;9.40;4.97;;;;;;;-1.22;100.00;101897.75;4975381;28;20031;-83
2023/12/07 03:50:05;;;;;;;10.30;4.75;;;;;;;-1.16;100.00;101910.78;4976389;28;20030;-83
2023/12/07 03:52:31;;;;;;;8.27;4.18;;;;;;;-1.10;100.00;101921.28;4975467;28;20110;-83
2023/12/07 03:54:56;;;;;;;7.47;4.13;;;;;;;-1.08;100.00;101929.91;4975436;28;20122;-84
2023/12/07 03:57:36;;;;;;;10.38;5.07;;;;;;;-1.03;100.00;101936.09;4976250;28;20052;-84
2023/12/07 04:00:04;;;;;;;10.23;5.10;;;;;;;-0.99;100.00;101947.28;4972432;23;20083;-83
2023/12/07 04:02:33;;;;;;;9.23;4.68;;;;;;;-0.96;100.00;101950.00;4955981;29;20488;-84
2023/12/07 04:05:01;;;;;;;11.38;5.40;;;;;;;-0.97;100.00;101949.16;4956943;29;20031;-83
2023/12/07 04:07:28;;;;;;;10.40;5.03;;;;;;;-0.97;100.00;101949.16;4956773;29;20051;-83
2023/12/07 04:10:05;;;;;;;12.85;5.70;;;;;;;-1.09;100.00;101929.00;4956275;28;20365;-83
2023/12/07 04:12:30;;;;;;;12.23;5.70;;;;;;;-0.93;100.00;101951.03;4956659;28;20110;-83
2023/12/07 04:14:56;;;;;;;11.80;5.57;;;;;;;-0.93;100.00;101945.06;4955431;29;20179;-84
2023/12/07 04:17:21;;;;;;;10.85;5.03;;;;;;;-0.90;100.00;101950.28;4956960;29;20477;-83
2023/12/07 04:19:47;;;;;;;11.05;5.50;;;;;;;-0.90;100.00;101952.84;4956241;29;20436;-83
2023/12/07 04:22:15;;;;;;;11.43;5.43;;;;;;;-0.94;100.00;101943.31;4955928;29;20042;-83
2023/12/07 04:24:40;;;;;;;13.15;5.90;;;;;;;-0.92;100.00;101946.81;4956189;29;20034;-84
2023/12/07 04:27:05;;;;;;;12.00;5.50;;;;;;;-0.87;100.00;101963.19;4956111;29;20102;-83
2023/12/07 04:29:33;;;;;;;10.00;5.00;;;;;;;-0.93;100.00;101955.25;4955177;29;20193;-83
2023/12/07 04:32:11;;;;;;;11.70;5.35;;;;;;;-1.06;100.00;101914.69;4955902;29;20118;-84
2023/12/07 04:34:54;;;;;;;14.93;6.47;;;;;;;-0.90;100.00;101952.84;4955736;29;20446;-83
2023/12/07 04:37:32;;;;;;;17.23;7.93;;;;;;;-0.94;100.00;101941.63;4955544;29;20067;-83
2023/12/07 04:40:00;;;;;;;19.70;8.82;;;;;;;-0.86;100.00;101962.41;4956549;29;20548;-84
2023/12/07 04:42:25;;;;;;;17.90;8.15;;;;;;;-0.87;100.00;101968.31;4956339;29;20063;-83
2023/12/07 04:44:50;;;;;;;18.33;8.27;;;;;;;-0.95;100.00;101956.84;4955617;29;20401;-83
2023/12/07 04:47:23;;;;;;;18.13;7.88;;;;;;;-0.89;100.00;101962.25;4956136;29;20033;-84
2023/12/07 04:50:03;;;;;;;17.88;7.60;;;;;;;-0.98;100.00;101949.94;4955762;29;20456;-83
2023/12/07 04:52:29;;;;;;;15.93;6.50;;;;;;;-0.92;100.00;101954.47;4955715;29;20031;-83
2023/12/07 04:54:54;;;;;;;18.98;8.05;;;;;;;-0.87;100.00;101953.00;4955524;29;20033;-83
2023/12/07 04:57:19;;;;;;;20.17;8.27;;;;;;;-0.95;100.00;101936.47;4954596;29;20050;-83
2023/12/07 05:00:06;;;;;;;20.27;9.05;;;;;;;-0.93;100.00;101960.38;4955196;29;20051;-83
2023/12/07 05:02:32;;;;;;;19.58;8.52;;;;;;;-1.00;100.00;101943.00;4955569;29;20433;-83
2023/12/07 05:04:57;;;;;;;19.48;8.52;;;;;;;-1.02;100.00;101936.97;4954736;29;20031;-83
2023/12/07 05:07:34;;;;;;;18.35;7.75;;;;;;;-1.13;100.00;101916.94;4955517;29;20091;-83
2023/12/07 05:09:59;;;;;;;18.95;8.15;;;;;;;-1.06;100.00;101929.97;4955311;28;20031;-83
2023/12/07 05:12:28;;;;;;;18.40;7.88;;;;;;;-1.04;100.00;101929.22;4962605;28;20416;-84
2023/12/07 05:14:53;;;;;;;17.33;7.10;;;;;;;-1.13;100.00;101903.31;4974252;28;20085;-84
2023/12/07 05:17:18;;;;;;;16.67;6.93;;;;;;;-1.06;100.00;101923.19;4974427;28;20015;-83
2023/12/07 05:19:44;;;;;;;17.90;7.57;;;;;;;-1.12;100.00;101915.25;4973660;28;20065;-83
2023/12/07 05:22:10;;;;;;;15.55;6.22;;;;;;;-1.02;100.00;101929.34;4974585;28;20093;-83
2023/12/07 05:24:35;;;;;;;12.82;5.43;;;;;;;-0.97;100.00;101930.41;4971995;28;20480;-84
2023/12/07 05:27:03;;;;;;;12.68;5.35;;;;;;;-0.96;100.00;101929.63;4954313;29;20027;-83
2023/12/07 05:29:29;;;;;;;16.02;6.20;;;;;;;-0.94;100.00;101928.88;4961528;23;20055;-84
2023/12/07 05:31:54;;;;;;;14.68;5.90;;;;;;;-0.94;100.00;101930.56;4954345;29;20015;-83
2023/12/07 05:34:19;;;;;;;17.10;6.32;;;;;;;-0.94;100.00;101928.03;4955053;29;20051;-83
2023/12/07 05:36:46;;;;;;;16.85;6.53;;;;;;;-0.89;100.00;101929.09;4954852;29;20090;-84
2023/12/07 05:39:12;;;;;;;15.13;6.20;;;;;;;-0.90;100.00;101926.50;4954290;29;20042;-83
2023/12/07 05:41:38;;;;;;;15.57;6.00;;;;;;;-0.90;100.00;101924.81;4954532;29;20063;-83
2023/12/07 05:44:21;;;;;;;14.88;6.13;;;;;;;-0.91;100.00;101925.63;4954999;29;20054;-84
2023/12/07 05:46:46;;;;;;;15.15;5.88;;;;;;;-0.89;100.00;101918.06;4953845;29;20027;-83
2023/12/07 05:49:12;;;;;;;15.32;6.07;;;;;;;-1.00;100.00;101892.94;4955095;29;20127;-84
2023/12/07 05:51:38;;;;;;;15.57;6.20;;;;;;;-0.89;100.00;101915.50;4954724;29;20399;-83
2023/12/07 05:54:03;;;;;;;14.75;5.65;;;;;;;-0.91;100.00;101895.06;4953848;29;20464;-83
2023/12/07 05:56:29;;;;;;;14.93;5.82;;;;;;;-0.86;100.00;101924.19;4954712;29;20038;-83
2023/12/07 05:58:54;;;;;;;15.02;5.88;;;;;;;-0.97;100.00;101900.72;4953968;29;20030;-82
2023/12/07 06:01:33;;;;;;;17.75;7.15;;;;;;;-0.87;100.00;101912.22;4953682;28;20035;-83
2023/12/07 06:03:59;;;;;;;18.80;7.32;;;;;;;-0.91;100.00;101901.81;4954933;29;20023;-83
2023/12/07 06:06:24;;;;;;;18.02;7.38;;;;;;;-0.94;100.00;101900.00;4954742;29;20472;-83
2023/12/07 06:08:52;;;;;;;17.40;6.78;;;;;;;-0.81;100.00;101917.63;4953443;29;20083;-84
2023/12/07 06:11:27;;;;;;;18.02;7.30;;;;;;;-0.96;100.00;101896.50;4936480;29;20039;-83
2023/12/07 06:13:52;;;;;;;17.77;6.70;;;;;;;-0.81;100.00;101919.28;4954018;29;20028;-83
2023/12/07 06:16:18;;;;;;;16.20;6.07;;;;;;;-0.78;100.00;101925.41;4953586;29;20033;-83
2023/12/07 06:18:44;;;;;;;15.70;5.78;;;;;;;-0.79;100.00;101920.25;4954600;29;20040;-83
2023/12/07 06:21:13;;;;;;;16.25;6.15;;;;;;;-0.69;100.00;101917.34;4953835;28;20070;-83
2023/12/07 06:23:39;;;;;;;15.93;5.47;;;;;;;-0.90;100.00;101893.38;4957417;29;20154;-83
2023/12/07 06:26:05;;;;;;;16.20;5.80;;;;;;;-0.79;100.00;101917.72;4958143;29;20063;-83
2023/12/07 06:28:32;;;;;;;13.82;5.32;;;;;;;-0.74;100.00;101923.91;4957940;29;20732;-83
2023/12/07 06:30:57;;;;;;;15.55;5.72;;;;;;;-0.72;100.00;101929.06;4958244;29;20548;-83
2023/12/07 06:33:28;;;;;;;15.43;5.65;;;;;;;-0.75;100.00;101924.72;4958305;29;20023;-84
2023/12/07 06:36:00;;;;;;;14.25;4.93;;;;;;;-0.87;100.00;101907.13;4955169;28;20058;-84
2023/12/07 06:41:02;;;;;;;13.57;4.85;;;;;;;-0.70;100.00;101928.34;5008051;23;20059;-83
2023/12/07 06:43:28;;;;;;;16.17;5.68;;;;;;;-0.72;100.00;101914.63;4977554;28;20488;-82
2023/12/07 06:45:53;;;;;;;16.30;5.95;;;;;;;-0.70;100.00;101900.28;4977248;28;20600;-83
2023/12/07 06:48:30;;;;;;;16.10;6.10;;;;;;;-0.76;100.00;101900.00;4977408;28;20031;-83
2023/12/07 06:51:02;;;;;;;13.80;5.30;;;;;;;-0.86;100.00;101883.41;4976389;28;20102;-83
2023/12/07 06:53:36;;;;;;;17.25;7.00;;;;;;;-0.54;100.00;101907.00;4976323;28;20090;-83
2023/12/07 06:56:14;;;;;;;19.27;7.00;;;;;;;-0.84;100.00;101874.16;4967995;28;20034;-83
2023/12/07 06:58:40;;;;;;;16.88;6.00;;;;;;;-0.73;100.00;101884.00;4976493;28;20029;-83
2023/12/07 07:01:08;;;;;;;16.45;6.40;;;;;;;-0.70;100.00;101885.00;4996313;28;20022;-83
2023/12/07 07:03:35;;;;;;;17.92;6.70;;;;;;;-0.75;100.00;101871.19;4994846;28;20026;-83
2023/12/07 07:06:18;;;;;;;16.45;6.30;;;;;;;-0.72;100.00;101885.72;4996863;28;20037;-83
2023/12/07 07:08:43;;;;;;;17.10;6.28;;;;;;;-0.66;100.00;101901.31;4996161;28;20022;-83
2023/12/07 07:11:15;;;;;;;16.50;6.22;;;;;;;-0.62;100.00;101896.44;4995426;28;20026;-83
2023/12/07 07:13:41;;;;;;;18.45;7.15;;;;;;;-0.56;100.00;101910.28;4996272;28;20023;-84
2023/12/07 07:16:08;;;;;;;17.75;7.00;;;;;;;-0.70;100.00;101907.09;4996119;28;20034;-84
2023/12/07 07:18:33;;;;;;;18.35;6.97;;;;;;;-0.71;100.00;101908.75;4995164;28;20027;-83
2023/12/07 07:20:58;;;;;;;17.40;6.35;;;;;;;-0.75;100.00;101896.66;4996157;28;20060;-83
2023/12/07 07:23:23;;;;;;;18.10;7.10;;;;;;;-0.74;100.00;101894.97;4981263;28;20391;-83
2023/12/07 07:25:49;;;;;;;16.50;6.38;;;;;;;-0.71;100.00;101900.25;4976271;28;20480;-82
2023/12/07 07:28:14;;;;;;;18.73;7.50;;;;;;;-0.62;100.00;101921.06;4977261;28;20110;-79
2023/12/07 07:30:42;;;;;;;18.83;6.97;;;;;;;-0.63;100.00;101919.31;4976677;28;20038;-83
2023/12/07 07:33:08;;;;;;;18.27;6.90;;;;;;;-0.80;100.00;101903.22;4975352;28;20464;-83
2023/12/07 07:35:33;;;;;;;17.98;7.03;;;;;;;-0.72;100.00;101923.97;4976523;28;20045;-83
2023/12/07 07:38:07;;;;;;;18.35;7.18;;;;;;;-0.77;100.00;101918.66;4972895;28;20041;-83
2023/12/07 07:40:32;;;;;;;16.60;6.45;;;;;;;-0.76;100.00;101917.88;4975298;28;20085;-83
2023/12/07 07:43:01;;;;;;;19.63;7.38;;;;;;;-0.70;100.00;101919.84;4976497;28;20060;-83
2023/12/07 07:45:59;;;;;;;19.52;7.00;;;;;;;-0.64;100.00;101921.00;4995807;28;20053;-82
2023/12/07 07:48:25;;;;;;;16.80;6.05;;;;;;;-0.76;100.00;101900.00;4995514;28;20034;-82
2023/12/07 07:50:57;;;;;;;16.58;6.00;;;;;;;-0.64;100.00;101912.47;4994796;28;20968;-83
2023/12/07 07:53:22;;;;;;;15.73;5.72;;;;;;;-0.57;100.00;101918.72;5107516;23;20110;-82
2023/12/07 07:55:48;;;;;;;17.58;6.20;;;;;;;-0.64;100.00;101908.25;4975852;28;20030;-83
2023/12/07 07:58:16;;;;;;;16.90;6.05;;;;;;;-0.58;100.00;101915.31;4976029;28;20018;-83
2023/12/07 08:00:46;;;;;;;14.80;5.50;;;;;;;-0.52;100.00;101910.50;4975360;28;20433;-82
2023/12/07 08:03:26;;;;;;;16.65;6.10;;;;;;;-0.53;100.00;101903.66;4976157;28;20031;-83
2023/12/07 08:05:57;;;;;;;16.33;6.03;;;;;;;-0.58;100.00;101902.56;4975930;28;20031;-83
2023/12/07 08:08:22;;;;;;;16.92;6.13;;;;;;;-0.60;100.00;101891.44;4975531;28;20070;-82
2023/12/07 08:11:08;;;;;;;16.90;6.25;;;;;;;-0.42;100.00;101910.94;4975923;28;20030;-83
2023/12/07 08:13:45;;;;;;;17.93;6.90;;;;;;;-0.53;100.00;101878.16;4976021;28;20031;-84
2023/12/07 08:16:27;;;;;;;19.13;7.18;;;;;;;-0.45;100.00;101878.50;4975398;28;20476;-84
2023/12/07 08:19:04;;;;;;;20.70;7.80;;;;;;;-0.40;100.00;101892.38;4972492;28;20042;-84
2023/12/07 08:21:29;;;;;;;20.05;7.55;;;;;;;-0.45;100.00;101887.84;4969159;28;20039;-83
2023/12/07 08:23:55;;;;;;;21.52;9.00;;;;;;;-0.27;100.00;101920.97;4975390;28;20357;-84
2023/12/07 08:26:37;;;;;;;21.40;8.63;;;;;;;-0.34;100.00;101905.41;4969442;28;20042;-83
2023/12/07 08:29:11;;;;;;;20.33;7.85;;;;;;;-0.38;100.00;101903.50;4974115;28;20031;-83
2023/12/07 08:34:32;;;;;;;23.25;9.57;;;;;;;-0.16;100.00;101905.38;4905571;23;20052;-84
2023/12/07 08:39:59;;;;;;;19.17;7.80;;;;;;;-0.32;100.00;101896.13;4899269;29;20101;-83
2023/12/07 08:42:40;;;;;;;20.17;8.07;;;;;;;-0.20;100.00;101902.63;4933077;23;20134;-84
2023/12/07 08:45:42;;;;;;;19.98;8.10;;;;;;;-0.19;100.00;101894.16;4955938;28;20046;-84
2023/12/07 08:48:36;;;;;;;20.23;8.23;;;;;;;-0.10;100.00;101915.00;4941379;29;20433;-83
2023/12/07 08:54:27;;;;;;;18.08;7.13;;;;;;;-0.12;100.00;101908.06;4924394;29;20028;-84
2023/12/07 08:57:03;;;;;;;17.63;6.60;;;;;;;-0.20;100.00;101898.38;4914839;29;20047;-83
2023/12/07 09:00:24;;;;;;;19.70;7.97;;;;;;;0.01;100.00;101923.13;4959669;23;20046;-83
2023/12/07 09:02:49;;;;;;;19.70;8.00;;;;;;;-0.13;100.00;101904.63;4956100;29;20041;-83
2023/12/07 09:05:20;;;;;;;21.17;8.50;;;;;;;-0.01;100.00;101912.00;4955075;29;20043;-83
2023/12/07 09:08:01;;;;;;;19.65;7.85;;;;;;;-0.06;100.00;101900.69;4955265;29;20026;-83
2023/12/07 09:13:02;;;;;;;20.08;8.15;;;;;;;-0.01;100.00;101897.53;5015298;23;20069;-83
2023/12/07 09:15:40;;;;;;;20.27;8.18;;;;;;;0.07;100.00;101902.09;4950973;29;20046;-83
2023/12/07 09:18:21;;;;;;;21.88;9.15;;;;;;;0.05;100.00;101878.22;4935399;29;20035;-83
2023/12/07 09:20:52;;;;;;;21.20;8.25;;;;;;;0.11;100.00;101902.31;4935833;29;20028;-83
2023/12/07 09:23:31;;;;;;;22.63;9.32;;;;;;;0.03;100.00;101890.88;4954548;29;20038;-83
2023/12/07 09:26:08;;;;;;;23.75;9.45;;;;;;;0.04;100.00;101887.53;4954635;29;20019;-83
2023/12/07 09:28:33;;;;;;;22.38;9.45;;;;;;;0.08;100.00;101894.53;4955353;29;20034;-83
2023/12/07 09:31:11;;;;;;;21.13;9.10;;;;;;;0.11;100.00;101881.88;4954999;28;20035;-83
2023/12/07 09:33:54;;;;;;;20.45;8.15;;;;;;;0.06;100.00;101872.28;4955273;29;20054;-83
2023/12/07 09:36:27;;;;;;;20.23;7.85;;;;;;;0.11;100.00;101883.56;4955010;29;20086;-84
2023/12/07 09:38:53;;;;;;;21.55;8.10;;;;;;;0.19;100.00;101883.91;4954376;29;20492;-82
2023/12/07 09:41:27;;;;;;;22.90;9.48;;;;;;;0.25;100.00;101889.28;4955299;29;20114;-82
2023/12/07 09:44:07;;;;;;;21.17;8.80;;;;;;;0.19;100.00;101871.16;4954947;29;20039;-81
2023/12/07 09:46:51;;;;;;;20.83;8.70;;;;;;;0.31;100.00;101879.34;4953483;29;20027;-83
2023/12/07 09:54:52;;;;;;;23.90;10.32;;;;;;;0.38;100.00;101853.25;4993824;28;20049;-83
2023/12/07 09:57:33;;;;;;;23.65;10.00;;;;;;;0.44;100.00;101850.09;4992679;28;20039;-83
2023/12/07 10:06:20;;;;;;;21.63;8.70;;;;;;;0.64;100.00;101835.63;4993770;28;20505;-83
2023/12/07 10:11:31;;;;;;;18.13;7.30;;;;;;;0.65;100.00;101813.47;5023356;23;20618;-82
2023/12/07 10:14:22;;;;;;;17.75;6.88;;;;;;;0.89;100.00;101834.94;4928075;29;20020;-82
2023/12/07 10:17:09;;;;;;;20.05;7.82;;;;;;;0.96;100.00;101827.53;4916334;29;20026;-83
2023/12/07 10:19:37;;;;;;;20.00;8.30;;;;;;;0.98;100.00;101810.53;4927937;29;20537;-83
2023/12/07 10:22:15;;;;;;;22.38;9.30;;;;;;;1.10;100.00;101820.41;4941560;29;20122;-83
2023/12/07 10:25:14;;;;;;;21.73;8.82;;;;;;;1.02;100.00;101789.41;4944000;29;20028;-83
2023/12/07 10:27:43;;;;;;;21.33;8.95;;;;;;;1.08;100.00;101804.97;4934508;29;20114;-83
2023/12/07 10:30:24;;;;;;;21.20;8.45;;;;;;;1.08;100.00;101798.19;4935700;29;20115;-83
2023/12/07 10:33:31;;;;;;;17.92;7.53;;;;;;;1.25;100.00;101792.84;4927509;29;20040;-83
2023/12/07 10:35:56;;;;;;;18.88;8.00;;;;;;;1.34;100.00;101788.09;5007721;23;20015;-83
2023/12/07 10:38:21;;;;;;;16.52;6.75;;;;;;;1.37;100.00;101780.53;4993050;28;20035;-84
2023/12/07 10:40:48;;;;;;;17.73;7.10;;;;;;;1.46;100.00;101780.00;4992663;28;20030;-83
2023/12/07 10:43:19;;;;;;;16.00;6.57;;;;;;;1.51;100.00;101787.84;4991883;28;20394;-84
2023/12/07 10:46:21;;;;;;;14.93;5.68;;;;;;;1.60;100.00;101782.22;4992762;28;20127;-84
2023/12/07 10:49:17;;;;;;;19.65;8.30;;;;;;;1.57;100.00;101756.50;4969842;28;20058;-83
2023/12/07 10:52:07;;;;;;;18.30;7.57;;;;;;;1.76;100.00;101773.41;4969795;28;20030;-83
2023/12/07 10:55:13;;;;;;;20.02;8.93;;;;;;;1.77;100.00;101768.31;4996097;23;20411;-84
2023/12/07 11:00:34;;;;;;;21.60;9.63;;;;;;;1.77;100.00;101752.97;4973502;28;19961;-83
2023/12/07 11:06:10;;;;;;;22.38;10.80;;;;;;;1.85;100.00;101740.44;4973842;28;20069;-84
2023/12/07 11:09:00;;;;;;;22.48;11.02;;;;;;;1.97;100.00;101740.03;4975742;28;20019;-83
2023/12/07 11:11:31;;;;;;;24.23;12.02;;;;;;;2.06;100.00;101757.38;4976009;28;20046;-80
2023/12/07 11:14:06;;;;;;;23.52;11.43;;;;;;;1.94;100.00;101733.06;4977118;28;20092;-83
2023/12/07 11:16:48;;;;;;;25.85;13.32;;;;;;;2.08;100.00;101737.81;4976962;28;20121;-82
2023/12/07 11:22:12;;;;;;;24.25;12.15;;;;;;;2.27;100.00;101726.50;4982682;23;20411;-82
2023/12/07 11:24:37;;;;;;;;;;;;;;;2.33;100.00;101718.16;4975737;28;20533;-83
2023/12/07 11:27:03;;;;;;;25.17;13.33;;;;;;;2.30;100.00;101709.53;4975717;28;19914;-82
2023/12/07 11:29:29;;;;;;;23.45;11.85;;;;;;;2.36;100.00;101708.88;4976540;28;20114;-83
2023/12/07 11:32:03;;;;;;;25.70;13.00;;;;;;;2.36;100.00;101708.88;4975304;28;20038;-83
2023/12/07 11:34:43;;;;;;;23.40;11.73;;;;;;;2.39;100.00;101706.41;4976282;28;20439;-82
2023/12/07 11:37:16;;;;;;;23.50;11.75;;;;;;;2.45;100.00;101709.16;4997341;23;20010;-82
2023/12/07 11:39:41;;;;;;;22.60;11.40;;;;;;;2.43;100.00;101697.97;4956291;29;20027;-82
2023/12/07 11:42:11;;;;;;;23.73;12.07;;;;;;;2.46;100.00;101699.78;4954389;28;20030;-81
2023/12/07 11:44:41;;;;;;;23.90;11.65;;;;;;;2.45;100.00;101698.03;4955484;29;20030;-81
2023/12/07 11:47:08;;;;;;;22.65;11.55;;;;;;;2.40;100.00;101684.22;4955838;29;20106;-82
2023/12/07 11:49:34;;;;;;;21.38;10.45;;;;;;;2.49;100.00;101686.19;5034247;23;20079;-82
2023/12/07 11:52:00;;;;;;;22.83;12.02;;;;;;;2.58;100.00;101691.59;4937025;29;20878;-81
2023/12/07 11:54:26;;;;;;;21.52;10.68;;;;;;;2.59;100.00;101691.66;4979231;23;20055;-81
2023/12/07 11:56:55;;;;;;;22.60;10.83;;;;;;;2.60;100.00;101685.69;4975621;28;20030;-81
2023/12/07 11:59:22;;;;;;;20.58;10.35;;;;;;;2.63;100.00;101680.69;4975488;28;20507;-81
2023/12/07 12:01:51;;;;;;;20.65;10.38;;;;;;;2.60;100.00;101666.91;4975560;28;20031;-82
2023/12/07 12:04:21;;;;;;;21.00;10.48;;;;;;;2.73;100.00;101674.16;4976092;28;20023;-81
2023/12/07 12:06:47;;;;;;;21.25;10.48;;;;;;;2.76;100.00;101671.66;4975503;28;20037;-81